Time;durP1;ratioP1;P1;durP2;ratioP2;P2;SDS_P1;SDS_P2;PMS_P1;PMS_P2;Temp;Humidity;BMP_temperature;BMP_pressure;BME280_temperature;BME280_humidity;BME280_pressure;Samples;Min_cycle;Max_cycle;Signal;HPM_P1;HPM_P2
2023/08/17 00:01:55;;;;;;;6.47;2.83;;;15.70;99.90;;;;;;5064403;28;20643;-73
2023/08/17 00:04:21;;;;;;;7.10;3.00;;;15.70;99.90;;;;;;5076512;28;20108;-73
2023/08/17 00:06:47;;;;;;;6.85;3.15;;;15.70;99.90;;;;;;5077371;28;20052;-73
2023/08/17 00:09:13;;;;;;;6.03;2.95;;;15.70;99.90;;;;;;5065789;28;20062;-73
2023/08/17 00:11:39;;;;;;;9.02;2.83;;;15.70;99.90;;;;;;5064616;28;20041;-73
2023/08/17 00:14:05;;;;;;;7.03;3.08;;;15.70;99.90;;;;;;5062392;28;20544;-73
2023/08/17 00:16:31;;;;;;;6.57;2.83;;;15.70;99.90;;;;;;5040962;28;20063;-73
2023/08/17 00:18:57;;;;;;;7.00;3.53;;;15.70;99.90;;;;;;5066218;28;20342;-73
2023/08/17 00:21:24;;;;;;;7.07;3.30;;;15.70;99.90;;;;;;5064333;28;20088;-73
2023/08/17 00:23:49;;;;;;;7.72;3.22;;;15.80;99.90;;;;;;5050671;28;20044;-73
2023/08/17 00:26:16;;;;;;;5.82;2.95;;;15.70;99.90;;;;;;5067438;28;20094;-73
2023/08/17 00:28:42;;;;;;;6.55;3.33;;;15.70;99.90;;;;;;5061979;28;20044;-73
2023/08/17 00:31:11;;;;;;;4.97;2.65;;;15.70;99.90;;;;;;5060169;28;20051;-73
2023/08/17 00:33:36;;;;;;;7.35;3.10;;;15.70;99.90;;;;;;5039786;28;20094;-73
2023/08/17 00:36:05;;;;;;;5.40;2.85;;;15.70;99.90;;;;;;5049398;28;20449;-73
2023/08/17 00:38:31;;;;;;;6.43;2.75;;;15.70;99.90;;;;;;5051042;28;20056;-73
2023/08/17 00:40:56;;;;;;;6.60;2.97;;;15.70;99.90;;;;;;5078446;28;20059;-73
2023/08/17 00:43:22;;;;;;;8.15;3.20;;;15.70;99.90;;;;;;5047810;28;20048;-74
2023/08/17 00:45:48;;;;;;;6.18;2.90;;;15.70;99.90;;;;;;5071500;28;20541;-73
2023/08/17 00:48:14;;;;;;;5.32;2.80;;;15.70;99.90;;;;;;5043651;28;22123;-73
2023/08/17 00:50:41;;;;;;;8.82;2.70;;;15.70;99.90;;;;;;5054144;28;20055;-72
2023/08/17 00:53:12;;;;;;;5.32;2.63;;;15.70;99.90;;;;;;5062163;28;20044;-73
2023/08/17 00:55:39;;;;;;;6.30;3.05;;;15.70;99.90;;;;;;5063585;28;20198;-73
2023/08/17 00:58:04;;;;;;;5.30;2.70;;;15.60;99.90;;;;;;5066014;28;20078;-73
2023/08/17 01:00:32;;;;;;;6.57;2.60;;;15.60;99.90;;;;;;5063109;28;20044;-72
2023/08/17 01:02:58;;;;;;;6.38;2.88;;;15.60;99.90;;;;;;5055694;28;20044;-73
2023/08/17 01:05:23;;;;;;;6.18;2.60;;;15.60;99.90;;;;;;5044446;28;20452;-73
2023/08/17 01:07:49;;;;;;;6.93;2.70;;;15.60;99.90;;;;;;5068446;28;20470;-72
2023/08/17 01:10:16;;;;;;;5.57;2.63;;;15.60;99.90;;;;;;5079439;28;20044;-72
2023/08/17 01:13:11;;;;;;;6.88;2.65;;;15.60;99.90;;;;;;5081316;28;20052;-73
2023/08/17 01:15:45;;;;;;;6.43;2.50;;;15.60;99.90;;;;;;5079851;28;20052;-72
2023/08/17 01:18:26;;;;;;;7.45;2.85;;;15.50;99.90;;;;;;5058493;28;20135;-73
2023/08/17 01:20:53;;;;;;;7.25;2.80;;;15.50;99.90;;;;;;5064244;28;20055;-73
2023/08/17 01:23:19;;;;;;;5.80;2.70;;;15.50;99.90;;;;;;5062599;28;20778;-73
2023/08/17 01:25:45;;;;;;;8.18;2.67;;;15.50;99.90;;;;;;5079697;28;20036;-72
2023/08/17 01:28:11;;;;;;;6.55;3.00;;;15.50;99.90;;;;;;5079240;28;20036;-73
2023/08/17 01:30:46;;;;;;;5.90;2.80;;;15.50;99.90;;;;;;5080452;28;20050;-74
2023/08/17 01:33:19;;;;;;;6.25;3.00;;;15.40;99.90;;;;;;5063206;28;20174;-74
2023/08/17 01:36:01;;;;;;;7.05;3.45;;;15.40;99.90;;;;;;5077362;28;20036;-74
2023/08/17 01:38:29;;;;;;;6.28;2.97;;;15.40;99.90;;;;;;5078152;28;20063;-74
2023/08/17 01:40:56;;;;;;;6.55;3.13;;;15.40;99.90;;;;;;5065428;28;20119;-74
2023/08/17 01:43:22;;;;;;;7.13;2.88;;;15.30;99.90;;;;;;5063278;28;20044;-72
2023/08/17 01:45:48;;;;;;;8.85;3.65;;;15.30;99.90;;;;;;5060847;28;20043;-73
2023/08/17 01:48:14;;;;;;;6.93;3.13;;;15.30;99.90;;;;;;5063104;28;20131;-72
2023/08/17 01:50:40;;;;;;;7.07;3.42;;;15.30;99.90;;;;;;5081398;28;20132;-73
2023/08/17 01:53:05;;;;;;;5.97;3.10;;;15.30;99.90;;;;;;5078814;28;20591;-72
2023/08/17 01:55:31;;;;;;;4.72;2.42;;;15.30;99.90;;;;;;5080754;28;20079;-73
2023/08/17 01:57:57;;;;;;;6.00;2.78;;;15.30;99.90;;;;;;5052597;28;20058;-72
2023/08/17 02:00:23;;;;;;;6.93;3.08;;;15.30;99.90;;;;;;5071628;28;20055;-71
2023/08/17 02:02:48;;;;;;;6.15;3.10;;;15.20;99.90;;;;;;5064667;28;20084;-73
2023/08/17 02:05:14;;;;;;;8.20;3.53;;;15.20;99.90;;;;;;5063085;28;20067;-73
2023/08/17 02:07:40;;;;;;;8.05;3.38;;;15.20;99.90;;;;;;5059299;28;20474;-73
2023/08/17 02:10:06;;;;;;;8.40;3.33;;;15.20;99.90;;;;;;5060362;28;20094;-72
2023/08/17 02:12:32;;;;;;;6.60;3.00;;;15.20;99.90;;;;;;5064546;28;20060;-73
2023/08/17 02:14:58;;;;;;;7.10;3.33;;;15.20;99.90;;;;;;5061933;28;20071;-72
2023/08/17 02:17:23;;;;;;;7.63;3.95;;;15.20;99.90;;;;;;5040106;28;20189;-73
2023/08/17 02:19:49;;;;;;;5.47;2.92;;;15.20;99.90;;;;;;5048884;28;20043;-72
2023/08/17 02:22:15;;;;;;;6.55;3.30;;;15.20;99.90;;;;;;5059885;28;20051;-72
2023/08/17 02:24:45;;;;;;;5.82;3.08;;;15.10;99.90;;;;;;5051094;28;20128;-73
2023/08/17 02:27:11;;;;;;;7.38;3.03;;;15.10;99.90;;;;;;5057879;28;20076;-73
2023/08/17 02:29:37;;;;;;;4.90;3.17;;;15.10;99.90;;;;;;5067606;28;20079;-73
2023/08/17 02:32:03;;;;;;;6.43;3.30;;;15.10;99.90;;;;;;5046555;28;20043;-73
2023/08/17 02:34:28;;;;;;;9.50;3.58;;;15.10;99.90;;;;;;5060657;28;20048;-73
2023/08/17 02:36:54;;;;;;;5.10;3.30;;;15.10;99.90;;;;;;5064209;28;20247;-73
2023/08/17 02:39:20;;;;;;;7.25;3.25;;;15.10;99.90;;;;;;5067108;28;20067;-73
2023/08/17 02:41:48;;;;;;;7.00;3.35;;;15.10;99.90;;;;;;5060475;28;20033;-73
2023/08/17 02:44:14;;;;;;;5.75;3.20;;;15.10;99.90;;;;;;5073121;28;20048;-73
2023/08/17 02:46:40;;;;;;;7.00;3.53;;;15.10;99.90;;;;;;5071405;28;20120;-73
2023/08/17 02:49:08;;;;;;;7.82;3.30;;;15.10;99.90;;;;;;5051926;28;20036;-73
2023/08/17 02:51:34;;;;;;;5.07;3.00;;;15.10;99.90;;;;;;5062618;28;20048;-73
2023/08/17 02:54:00;;;;;;;5.18;3.30;;;15.10;99.90;;;;;;5062202;28;20494;-73
2023/08/17 02:56:26;;;;;;;5.70;3.20;;;15.10;99.90;;;;;;5063456;28;20070;-73
2023/08/17 02:58:52;;;;;;;7.10;2.83;;;15.10;99.90;;;;;;5064785;28;20044;-73
2023/08/17 03:01:18;;;;;;;5.85;3.35;;;15.10;99.90;;;;;;5047522;28;20051;-73
2023/08/17 03:03:43;;;;;;;5.30;3.38;;;15.10;99.90;;;;;;5063668;28;20048;-73
2023/08/17 03:06:09;;;;;;;8.43;3.78;;;15.10;99.90;;;;;;5062116;28;20052;-73
2023/08/17 03:08:35;;;;;;;6.38;3.67;;;15.10;99.90;;;;;;5075198;28;20044;-73
2023/08/17 03:11:01;;;;;;;9.95;3.92;;;15.10;99.90;;;;;;5083323;28;20431;-73
2023/08/17 03:13:27;;;;;;;5.80;3.47;;;15.00;99.90;;;;;;5066841;28;20494;-73
2023/08/17 03:15:54;;;;;;;7.40;3.45;;;15.10;99.90;;;;;;5064756;28;20108;-73
2023/08/17 03:18:19;;;;;;;7.57;4.20;;;15.00;99.90;;;;;;5082205;28;20501;-73
2023/08/17 03:20:46;;;;;;;6.40;3.53;;;15.10;99.90;;;;;;5063202;28;20047;-73
2023/08/17 03:23:11;;;;;;;9.45;3.90;;;15.00;99.90;;;;;;5083302;28;20529;-73
2023/08/17 03:25:37;;;;;;;8.55;4.35;;;15.10;99.90;;;;;;5080924;28;20052;-73
2023/08/17 03:28:03;;;;;;;7.05;3.70;;;15.00;99.90;;;;;;5067038;28;20036;-73
2023/08/17 03:30:29;;;;;;;8.52;3.92;;;15.10;99.90;;;;;;5062911;28;20152;-73
2023/08/17 03:32:55;;;;;;;6.63;3.40;;;15.00;99.90;;;;;;5083168;28;20126;-73
2023/08/17 03:35:21;;;;;;;6.30;3.83;;;15.00;99.90;;;;;;5079793;28;20044;-73
2023/08/17 03:37:47;;;;;;;6.85;3.67;;;15.00;99.90;;;;;;5083516;28;20044;-74
2023/08/17 03:40:12;;;;;;;5.03;3.40;;;15.00;99.90;;;;;;5081346;28;20039;-75
2023/08/17 03:42:38;;;;;;;5.95;3.78;;;15.00;99.90;;;;;;5084317;28;20058;-73
2023/08/17 03:45:04;;;;;;;7.65;3.83;;;15.00;99.90;;;;;;5081917;28;20498;-73
2023/08/17 03:47:30;;;;;;;7.05;3.72;;;15.00;99.90;;;;;;5064123;28;20471;-73
2023/08/17 03:49:56;;;;;;;5.72;3.58;;;15.00;99.90;;;;;;5079467;28;20054;-73
2023/08/17 03:52:22;;;;;;;5.72;4.03;;;15.00;99.90;;;;;;5079408;28;20050;-73
2023/08/17 03:54:48;;;;;;;6.25;4.00;;;15.00;99.90;;;;;;5081705;28;20127;-74
2023/08/17 03:57:13;;;;;;;6.10;4.00;;;15.00;99.90;;;;;;5080971;28;20494;-73
2023/08/17 03:59:40;;;;;;;7.35;4.00;;;15.00;99.90;;;;;;5078865;28;20044;-73
2023/08/17 04:02:06;;;;;;;7.70;3.83;;;15.00;99.90;;;;;;5065462;28;20051;-73
2023/08/17 04:04:32;;;;;;;8.07;4.57;;;15.00;99.90;;;;;;5060730;28;20040;-73
2023/08/17 04:06:58;;;;;;;6.38;3.45;;;15.00;99.90;;;;;;5082530;28;20722;-73
2023/08/17 04:09:25;;;;;;;10.88;4.00;;;15.00;99.90;;;;;;5078711;28;20067;-73
2023/08/17 04:11:51;;;;;;;13.48;4.57;;;15.10;99.90;;;;;;5065522;28;20048;-73
2023/08/17 04:14:17;;;;;;;8.35;3.90;;;15.10;99.90;;;;;;5079021;28;20044;-74
2023/08/17 04:16:43;;;;;;;7.63;3.83;;;15.10;99.90;;;;;;5082768;28;20036;-73
2023/08/17 04:19:08;;;;;;;9.90;3.53;;;15.20;99.90;;;;;;5080957;28;20048;-73
2023/08/17 04:21:34;;;;;;;6.97;4.15;;;15.20;99.90;;;;;;5064876;28;20054;-73
2023/08/17 04:24:00;;;;;;;6.45;3.97;;;15.20;99.90;;;;;;5059964;28;20051;-73
2023/08/17 04:26:25;;;;;;;6.30;3.75;;;15.20;99.90;;;;;;5081952;28;20132;-73
2023/08/17 04:28:51;;;;;;;6.72;3.50;;;15.30;99.90;;;;;;5078855;28;20495;-73
2023/08/17 04:31:17;;;;;;;7.80;3.88;;;15.30;99.90;;;;;;5082575;28;20113;-73
2023/08/17 04:33:43;;;;;;;8.80;3.83;;;15.30;99.90;;;;;;5066115;28;20090;-73
2023/08/17 04:36:08;;;;;;;7.22;3.38;;;15.30;99.90;;;;;;5078222;28;20478;-73
2023/08/17 04:38:34;;;;;;;6.38;3.20;;;15.30;99.90;;;;;;5066013;28;20060;-73
2023/08/17 04:41:00;;;;;;;6.88;3.90;;;15.40;99.90;;;;;;5082050;28;20036;-73
2023/08/17 04:43:26;;;;;;;7.20;3.40;;;15.40;99.90;;;;;;5063313;28;20410;-73
2023/08/17 04:45:51;;;;;;;7.75;3.10;;;15.40;99.90;;;;;;5080791;28;20046;-73
2023/08/17 04:48:17;;;;;;;6.05;3.15;;;15.50;99.90;;;;;;5079184;28;20409;-73
2023/08/17 04:50:43;;;;;;;7.40;3.15;;;15.50;99.90;;;;;;5078437;28;20032;-73
2023/08/17 04:53:09;;;;;;;5.82;3.00;;;15.50;99.90;;;;;;5081385;28;20127;-73
2023/08/17 04:55:35;;;;;;;8.75;3.58;;;15.50;99.90;;;;;;5065503;28;20246;-73
2023/08/17 04:58:01;;;;;;;8.27;3.78;;;15.50;99.90;;;;;;5080799;28;20093;-73
2023/08/17 05:00:30;;;;;;;6.80;2.80;;;15.60;99.90;;;;;;5079327;28;20048;-73
2023/08/17 05:02:56;;;;;;;9.03;3.43;;;15.60;99.90;;;;;;5064857;28;20040;-73
2023/08/17 05:05:22;;;;;;;7.88;3.25;;;15.60;99.90;;;;;;5079908;28;20517;-73
2023/08/17 05:07:47;;;;;;;8.65;2.95;;;15.60;99.90;;;;;;5081157;28;20067;-74
2023/08/17 05:10:13;;;;;;;6.60;3.20;;;15.60;99.90;;;;;;5063278;28;20044;-73
2023/08/17 05:12:39;;;;;;;8.40;3.08;;;15.60;99.90;;;;;;5064283;28;20494;-73
2023/08/17 05:15:05;;;;;;;8.50;3.05;;;15.70;99.90;;;;;;5065654;28;20139;-73
2023/08/17 05:17:31;;;;;;;6.75;3.17;;;15.60;99.90;;;;;;5077698;28;20188;-74
2023/08/17 05:19:56;;;;;;;7.90;3.25;;;15.60;99.90;;;;;;5080722;28;20040;-73
2023/08/17 05:22:22;;;;;;;8.77;3.10;;;15.70;99.90;;;;;;5060384;28;20494;-73
2023/08/17 05:24:48;;;;;;;9.30;3.40;;;15.70;99.90;;;;;;5080182;28;20044;-73
2023/08/17 05:27:14;;;;;;;10.52;3.17;;;15.60;99.90;;;;;;5062192;28;20498;-73
2023/08/17 05:29:39;;;;;;;8.50;3.10;;;15.70;99.90;;;;;;5081017;28;20644;-73
2023/08/17 05:32:05;;;;;;;6.15;3.30;;;15.70;99.90;;;;;;5061130;28;20040;-73
2023/08/17 05:34:31;;;;;;;7.65;3.25;;;15.70;99.90;;;;;;5064695;28;20474;-73
2023/08/17 05:36:57;;;;;;;9.45;2.92;;;15.60;99.90;;;;;;5077518;28;20361;-72
2023/08/17 05:39:23;;;;;;;7.00;3.15;;;15.70;99.90;;;;;;5077126;28;20044;-72
2023/08/17 05:41:48;;;;;;;8.80;3.58;;;15.70;99.90;;;;;;5079854;28;20398;-72
2023/08/17 05:44:15;;;;;;;6.05;3.25;;;15.70;99.90;;;;;;5062598;28;20036;-75
2023/08/17 05:46:41;;;;;;;7.68;3.53;;;15.70;99.90;;;;;;5063202;28;20066;-72
2023/08/17 05:49:06;;;;;;;6.88;3.47;;;15.70;99.90;;;;;;5081009;28;20044;-72
2023/08/17 05:51:32;;;;;;;7.30;3.45;;;15.80;99.90;;;;;;5077819;28;20040;-72
2023/08/17 05:53:58;;;;;;;6.07;2.97;;;15.80;99.90;;;;;;5080853;28;20115;-74
2023/08/17 05:56:24;;;;;;;7.70;3.35;;;15.80;99.90;;;;;;5060088;28;20051;-74
2023/08/17 05:58:49;;;;;;;6.65;3.20;;;15.90;99.90;;;;;;5064924;28;20135;-73
2023/08/17 06:01:15;;;;;;;6.85;3.17;;;15.90;99.90;;;;;;5063408;28;20131;-74
2023/08/17 06:03:41;;;;;;;7.97;3.15;;;15.90;99.90;;;;;;5081042;28;20044;-73
2023/08/17 06:06:10;;;;;;;9.27;3.20;;;15.90;99.90;;;;;;5081707;28;20073;-73
2023/08/17 06:08:35;;;;;;;7.10;3.10;;;15.90;99.90;;;;;;5078178;28;20580;-74
2023/08/17 06:11:01;;;;;;;7.15;2.92;;;16.00;99.90;;;;;;5080641;28;20686;-74
2023/08/17 06:13:27;;;;;;;8.25;2.92;;;16.00;99.90;;;;;;5061884;28;20534;-73
2023/08/17 06:15:53;;;;;;;8.68;3.15;;;16.00;99.90;;;;;;5079401;28;20044;-74
2023/08/17 06:18:20;;;;;;;8.93;2.90;;;16.00;99.90;;;;;;5080734;28;20051;-73
2023/08/17 06:20:47;;;;;;;8.93;3.53;;;15.90;99.90;;;;;;5074098;28;20130;-73
2023/08/17 06:23:13;;;;;;;13.25;5.00;;;15.90;99.90;;;;;;5080707;28;20175;-73
2023/08/17 06:25:38;;;;;;;8.55;3.20;;;16.00;99.90;;;;;;5061086;28;20085;-73
2023/08/17 06:28:06;;;;;;;7.95;2.80;;;15.90;99.90;;;;;;5081996;28;20072;-74
2023/08/17 06:30:31;;;;;;;6.22;2.83;;;15.90;99.90;;;;;;5079094;28;20157;-73
2023/08/17 06:32:57;;;;;;;5.80;3.28;;;16.00;99.90;;;;;;5080814;28;20969;-74
2023/08/17 06:35:26;;;;;;;6.97;3.38;;;16.00;99.90;;;;;;5076862;28;20047;-73
2023/08/17 06:37:55;;;;;;;5.90;2.95;;;16.00;99.90;;;;;;5078189;28;20127;-73
2023/08/17 06:40:21;;;;;;;6.55;3.08;;;16.00;99.90;;;;;;5059775;28;20036;-73
2023/08/17 06:42:47;;;;;;;6.15;3.00;;;16.10;99.90;;;;;;5079584;28;20402;-73
2023/08/17 06:45:12;;;;;;;8.82;3.30;;;16.10;99.90;;;;;;5079646;28;20505;-74
2023/08/17 06:47:38;;;;;;;7.05;2.97;;;16.10;99.90;;;;;;5077737;28;20071;-73
2023/08/17 06:50:04;;;;;;;7.13;2.80;;;16.20;99.90;;;;;;5079941;28;20048;-73
2023/08/17 06:52:30;;;;;;;6.85;2.50;;;16.30;99.90;;;;;;5076862;28;20055;-73
2023/08/17 06:54:56;;;;;;;7.35;2.90;;;16.30;99.90;;;;;;5081296;28;20048;-73
2023/08/17 06:57:22;;;;;;;7.72;2.72;;;16.40;99.90;;;;;;5076531;28;20137;-73
2023/08/17 06:59:48;;;;;;;5.57;2.42;;;16.40;99.90;;;;;;5064018;28;20048;-73
2023/08/17 07:02:14;;;;;;;5.88;2.38;;;16.50;99.90;;;;;;5076968;28;20043;-73
2023/08/17 07:04:39;;;;;;;5.75;2.42;;;16.50;99.90;;;;;;5063627;28;20044;-73
2023/08/17 07:07:05;;;;;;;6.70;2.45;;;16.60;99.90;;;;;;5060855;28;20392;-73
2023/08/17 07:09:31;;;;;;;7.03;2.35;;;16.60;99.90;;;;;;5076977;28;20032;-73
2023/08/17 07:11:57;;;;;;;7.13;2.20;;;16.60;99.90;;;;;;5077922;28;20071;-73
2023/08/17 07:14:23;;;;;;;6.75;2.47;;;16.70;99.90;;;;;;5077682;28;20040;-73
2023/08/17 07:16:48;;;;;;;5.88;2.42;;;16.70;99.90;;;;;;5078886;28;20075;-73
2023/08/17 07:19:14;;;;;;;5.53;2.30;;;16.70;99.90;;;;;;5079189;28;20556;-73
2023/08/17 07:21:40;;;;;;;5.93;2.60;;;16.70;99.90;;;;;;5059067;28;20070;-73
2023/08/17 07:24:13;;;;;;;4.88;2.03;;;16.70;99.90;;;;;;5080248;28;20040;-74
2023/08/17 07:26:39;;;;;;;7.50;2.47;;;16.80;99.90;;;;;;5077620;28;20036;-74
2023/08/17 07:29:05;;;;;;;5.18;2.28;;;16.80;99.90;;;;;;5065483;28;20459;-73
2023/08/17 07:31:33;;;;;;;7.65;2.10;;;16.90;99.90;;;;;;5081650;28;20127;-74
2023/08/17 07:33:59;;;;;;;4.57;2.08;;;17.00;99.90;;;;;;5083965;28;20047;-73
2023/08/17 07:36:25;;;;;;;7.10;2.22;;;17.10;99.90;;;;;;5083468;28;20036;-74
2023/08/17 07:38:51;;;;;;;5.10;2.00;;;17.10;99.90;;;;;;5061846;28;20043;-74
2023/08/17 07:41:17;;;;;;;5.97;2.13;;;17.20;99.90;;;;;;5082925;28;20054;-73
2023/08/17 07:43:42;;;;;;;6.40;2.08;;;17.20;99.90;;;;;;5082669;28;20040;-73
2023/08/17 07:46:08;;;;;;;6.05;2.20;;;17.30;99.90;;;;;;5068193;28;20039;-74
2023/08/17 07:48:34;;;;;;;7.38;1.98;;;17.30;99.90;;;;;;5079834;28;20513;-74
2023/08/17 07:51:00;;;;;;;5.82;2.13;;;17.30;99.90;;;;;;5061181;28;20063;-74
2023/08/17 07:53:26;;;;;;;5.78;1.92;;;17.30;99.90;;;;;;5080239;28;20052;-75
2023/08/17 07:55:51;;;;;;;4.43;1.95;;;17.30;99.90;;;;;;5081258;28;20040;-75
2023/08/17 07:58:17;;;;;;;5.13;1.80;;;17.30;99.90;;;;;;5065991;28;20070;-75
2023/08/17 08:00:43;;;;;;;5.47;2.13;;;17.30;99.90;;;;;;5079397;28;20051;-74
2023/08/17 08:03:09;;;;;;;5.03;1.75;;;17.30;99.90;;;;;;5083262;28;20048;-73
2023/08/17 08:05:35;;;;;;;5.00;1.92;;;17.30;99.90;;;;;;5066027;28;20175;-74
2023/08/17 08:08:01;;;;;;;4.35;1.40;;;17.30;99.90;;;;;;5065979;28;20139;-73
2023/08/17 08:10:28;;;;;;;5.85;1.55;;;17.30;99.90;;;;;;5063464;28;20041;-74
2023/08/17 08:12:54;;;;;;;6.88;2.17;;;17.40;99.90;;;;;;5066167;28;20044;-74
2023/08/17 08:15:20;;;;;;;6.15;1.65;;;17.50;99.90;;;;;;5064598;28;20075;-73
2023/08/17 08:17:46;;;;;;;5.30;1.85;;;17.50;99.90;;;;;;5081726;28;20498;-73
2023/08/17 08:20:12;;;;;;;4.03;1.40;;;17.50;99.90;;;;;;5064475;28;20040;-73
2023/08/17 08:22:38;;;;;;;5.60;1.45;;;17.60;99.90;;;;;;5063247;28;20051;-74
2023/08/17 08:25:04;;;;;;;7.18;1.88;;;17.70;99.90;;;;;;5082199;28;20560;-72
2023/08/17 08:27:29;;;;;;;5.82;1.80;;;17.70;99.90;;;;;;5061516;28;20071;-73
2023/08/17 08:29:55;;;;;;;4.13;1.80;;;17.70;99.90;;;;;;5065751;28;20482;-73
2023/08/17 08:32:21;;;;;;;6.75;1.60;;;17.70;99.90;;;;;;5062888;28;20152;-74
2023/08/17 08:34:47;;;;;;;5.43;1.58;;;17.80;99.90;;;;;;5064563;28;20490;-74
2023/08/17 08:37:13;;;;;;;4.82;1.60;;;17.90;99.90;;;;;;5081664;28;20477;-73
2023/08/17 08:39:49;;;;;;;6.53;2.03;;;18.00;99.90;;;;;;5081913;28;20043;-74
2023/08/17 08:42:15;;;;;;;5.93;1.80;;;18.30;99.90;;;;;;5063026;28;20545;-73
2023/08/17 08:44:41;;;;;;;7.57;1.70;;;18.30;99.90;;;;;;5081224;28;20131;-74
2023/08/17 08:47:08;;;;;;;7.75;1.95;;;18.30;99.90;;;;;;5073548;28;20383;-73
2023/08/17 08:49:39;;;;;;;3.95;1.52;;;18.30;99.90;;;;;;5063192;28;20188;-74
2023/08/17 08:52:12;;;;;;;7.22;1.90;;;18.30;99.90;;;;;;5080666;28;20118;-74
2023/08/17 08:54:39;;;;;;;4.43;1.92;;;18.30;99.90;;;;;;5080848;28;20498;-74
2023/08/17 08:57:12;;;;;;;4.13;1.65;;;18.30;99.90;;;;;;5067460;28;20410;-74
2023/08/17 08:59:44;;;;;;;6.32;1.75;;;18.30;99.90;;;;;;5080375;28;20043;-73
2023/08/17 09:02:14;;;;;;;5.57;1.60;;;18.20;99.90;;;;;;5080446;28;20055;-75
2023/08/17 09:04:41;;;;;;;5.15;1.75;;;18.20;99.90;;;;;;5081290;28;20238;-74
2023/08/17 09:07:09;;;;;;;4.05;1.75;;;18.10;99.90;;;;;;5082530;28;20052;-73
2023/08/17 09:09:36;;;;;;;5.00;2.03;;;18.10;99.90;;;;;;5091124;28;20517;-73
2023/08/17 09:12:02;;;;;;;5.00;2.10;;;18.00;99.90;;;;;;5066931;28;20417;-75
2023/08/17 09:14:28;;;;;;;5.63;1.80;;;18.00;99.90;;;;;;5080462;28;20096;-73
2023/08/17 09:16:53;;;;;;;5.75;1.85;;;18.00;99.90;;;;;;5083248;28;20125;-74
2023/08/17 09:19:20;;;;;;;5.28;1.50;;;18.00;99.90;;;;;;5078969;28;20074;-74
2023/08/17 09:21:45;;;;;;;4.53;1.75;;;18.00;99.90;;;;;;5082028;28;20055;-74
2023/08/17 09:24:12;;;;;;;6.45;2.13;;;18.10;99.90;;;;;;5081527;28;20040;-75
2023/08/17 09:26:38;;;;;;;5.20;1.77;;;18.20;99.90;;;;;;5060421;28;20051;-75
2023/08/17 09:29:17;;;;;;;5.85;2.00;;;18.20;99.90;;;;;;5063622;28;20044;-76
2023/08/17 09:31:43;;;;;;;5.18;1.80;;;18.30;99.90;;;;;;5078997;28;20055;-75
2023/08/17 09:34:09;;;;;;;5.93;1.90;;;18.30;99.90;;;;;;5075662;28;20048;-75
2023/08/17 09:36:39;;;;;;;5.60;1.50;;;18.30;99.90;;;;;;5081837;28;20048;-75
2023/08/17 09:39:05;;;;;;;4.85;2.03;;;18.40;99.90;;;;;;5096296;28;20048;-75
2023/08/17 09:41:39;;;;;;;6.13;1.77;;;18.40;99.90;;;;;;5080481;28;20118;-75
2023/08/17 09:44:05;;;;;;;5.32;1.77;;;18.50;99.90;;;;;;5079790;28;20079;-74
2023/08/17 09:46:31;;;;;;;4.90;1.85;;;18.50;99.90;;;;;;5061502;28;20079;-75
2023/08/17 09:48:58;;;;;;;6.40;1.92;;;18.50;99.90;;;;;;5077658;28;20098;-73
2023/08/17 09:51:24;;;;;;;4.95;1.65;;;18.50;99.90;;;;;;5059585;28;20036;-73
2023/08/17 09:53:53;;;;;;;4.90;1.60;;;18.50;99.90;;;;;;5079391;28;20289;-74
2023/08/17 09:56:23;;;;;;;4.72;1.55;;;18.50;99.90;;;;;;5059127;28;20080;-74
2023/08/17 09:58:49;;;;;;;5.57;1.73;;;18.50;99.90;;;;;;5078573;28;20071;-74
2023/08/17 10:01:16;;;;;;;5.47;1.73;;;18.50;99.90;;;;;;5074874;28;20044;-74
2023/08/17 10:03:45;;;;;;;5.85;2.00;;;18.50;99.90;;;;;;5077276;28;20087;-74
2023/08/17 10:06:13;;;;;;;3.40;1.63;;;18.50;99.90;;;;;;5075968;28;20059;-73
2023/08/17 10:08:52;;;;;;;5.03;1.80;;;18.50;99.90;;;;;;5079376;28;20334;-75
2023/08/17 10:11:21;;;;;;;5.40;2.55;;;18.50;99.90;;;;;;5062098;28;20137;-73
2023/08/17 10:14:15;;;;;;;3.95;1.80;;;18.50;99.90;;;;;;5077601;28;20139;-74
2023/08/17 10:16:45;;;;;;;4.63;1.95;;;18.50;99.90;;;;;;5075445;28;20055;-74
2023/08/17 10:19:22;;;;;;;5.63;1.83;;;18.60;99.90;;;;;;5077427;28;20044;-73
2023/08/17 10:22:10;;;;;;;7.45;2.38;;;18.60;99.90;;;;;;5061995;28;20068;-75
2023/08/17 10:24:38;;;;;;;4.65;1.83;;;18.80;99.90;;;;;;5078384;28;20105;-73
2023/08/17 10:27:05;;;;;;;7.85;2.53;;;18.90;99.90;;;;;;5079412;28;20048;-74
2023/08/17 10:29:32;;;;;;;5.88;2.55;;;19.10;99.90;;;;;;5063028;28;20040;-74
2023/08/17 10:32:00;;;;;;;6.20;2.10;;;19.20;99.90;;;;;;5078485;28;20040;-74
2023/08/17 10:34:27;;;;;;;4.50;1.80;;;19.20;99.90;;;;;;5096253;28;20036;-73
2023/08/17 10:36:57;;;;;;;6.13;1.85;;;19.10;99.90;;;;;;5078003;28;20556;-75
2023/08/17 10:39:28;;;;;;;6.93;2.50;;;19.10;99.90;;;;;;5064337;28;20138;-75
2023/08/17 10:41:55;;;;;;;6.20;2.25;;;19.10;99.90;;;;;;5077936;28;20044;-74
2023/08/17 10:44:41;;;;;;;5.60;1.92;;;19.10;99.90;;;;;;5080215;28;20047;-73
2023/08/17 10:47:27;;;;;;;5.05;2.10;;;19.10;99.90;;;;;;5061191;28;20052;-74
2023/08/17 10:50:01;;;;;;;6.70;2.05;;;19.00;99.90;;;;;;5078993;28;20115;-74
2023/08/17 10:52:32;;;;;;;5.55;1.80;;;19.00;99.90;;;;;;5061443;28;20439;-75
2023/08/17 10:55:05;;;;;;;8.32;2.20;;;19.00;99.90;;;;;;5079740;28;20048;-73
2023/08/17 10:57:40;;;;;;;4.35;2.03;;;19.00;99.90;;;;;;5065112;28;20115;-74
2023/08/17 11:00:16;;;;;;;4.65;2.15;;;19.10;99.90;;;;;;5077565;28;20079;-74
2023/08/17 11:03:43;;;;;;;;;;;;;;;;;;;;;
2023/08/17 11:06:27;;;;;;;5.03;2.10;;;19.20;99.90;;;;;;5017497;28;20146;-74
2023/08/17 11:08:55;;;;;;;5.47;2.10;;;19.10;99.90;;;;;;5001928;28;20117;-74
2023/08/17 11:11:22;;;;;;;5.13;2.35;;;19.10;99.90;;;;;;5060626;28;20515;-74
2023/08/17 11:13:49;;;;;;;4.65;2.60;;;19.10;99.90;;;;;;5080574;28;20526;-74
2023/08/17 11:16:19;;;;;;;7.95;2.58;;;19.10;99.90;;;;;;5081840;28;20040;-75
2023/08/17 11:18:49;;;;;;;5.88;2.05;;;19.00;99.90;;;;;;5083978;28;20126;-74
2023/08/17 11:21:15;;;;;;;5.57;2.25;;;19.00;99.90;;;;;;5097695;28;20074;-74
2023/08/17 11:23:41;;;;;;;7.20;2.67;;;19.00;99.90;;;;;;5065431;28;20047;-73
2023/08/17 11:26:07;;;;;;;5.53;2.30;;;19.00;99.90;;;;;;5084341;28;20043;-74
2023/08/17 11:28:40;;;;;;;4.47;2.55;;;19.00;99.90;;;;;;5063299;28;20079;-74
2023/08/17 11:31:13;;;;;;;5.25;2.85;;;19.10;99.90;;;;;;5081660;28;20545;-74
2023/08/17 11:33:39;;;;;;;8.98;3.42;;;19.10;99.90;;;;;;5079007;28;20051;-74
2023/08/17 11:36:07;;;;;;;5.75;2.70;;;19.10;99.90;;;;;;5081173;28;20557;-73
2023/08/17 11:38:41;;;;;;;5.95;3.03;;;19.10;99.90;;;;;;5064804;28;20123;-75
2023/08/17 11:41:08;;;;;;;6.30;3.13;;;19.10;99.90;;;;;;5080961;28;20517;-73
2023/08/17 11:43:37;;;;;;;6.20;3.63;;;19.00;99.90;;;;;;5080085;28;20048;-74
2023/08/17 11:46:04;;;;;;;6.77;3.40;;;19.10;99.90;;;;;;5079004;28;20138;-73
2023/08/17 11:48:31;;;;;;;8.18;3.50;;;19.10;99.90;;;;;;5061445;28;20040;-74
2023/08/17 11:50:57;;;;;;;6.13;3.63;;;19.10;99.90;;;;;;5082842;28;20392;-73
2023/08/17 11:53:24;;;;;;;4.82;3.67;;;19.20;99.90;;;;;;5081249;28;20032;-74
2023/08/17 11:55:50;;;;;;;6.18;3.40;;;19.20;99.90;;;;;;5083634;28;20051;-74
2023/08/17 11:58:16;;;;;;;6.60;3.90;;;19.30;99.90;;;;;;5079554;28;20478;-75
2023/08/17 12:00:47;;;;;;;5.43;3.40;;;19.40;99.90;;;;;;5065638;28;20128;-74
2023/08/17 12:03:16;;;;;;;5.55;3.30;;;19.40;99.90;;;;;;5080081;28;20555;-75
2023/08/17 12:05:44;;;;;;;5.40;3.38;;;19.50;99.90;;;;;;5059840;28;20286;-74
2023/08/17 12:08:09;;;;;;;5.78;2.83;;;19.50;99.90;;;;;;5082908;28;20600;-74
2023/08/17 12:10:39;;;;;;;6.80;3.50;;;19.60;99.90;;;;;;5081796;28;20075;-74
2023/08/17 12:13:06;;;;;;;6.35;3.00;;;19.70;99.90;;;;;;5080076;28;20048;-74
2023/08/17 12:15:35;;;;;;;6.22;4.00;;;19.70;99.90;;;;;;5081457;28;20423;-75
2023/08/17 12:18:03;;;;;;;6.13;4.43;;;19.70;99.90;;;;;;5065769;28;20044;-74
2023/08/17 12:20:32;;;;;;;7.45;4.15;;;19.70;99.90;;;;;;5065132;28;20048;-74
2023/08/17 12:23:00;;;;;;;6.78;4.07;;;19.70;99.90;;;;;;5079802;28;20052;-74
2023/08/17 12:25:26;;;;;;;6.60;4.47;;;19.70;99.90;;;;;;5079461;28;20044;-74
2023/08/17 12:27:52;;;;;;;6.70;4.38;;;19.70;99.90;;;;;;5082911;28;20067;-74
2023/08/17 12:30:30;;;;;;;7.65;4.32;;;19.70;99.90;;;;;;5078850;28;20320;-74
2023/08/17 12:32:55;;;;;;;5.57;4.32;;;19.70;99.90;;;;;;5099001;28;20048;-74
2023/08/17 12:35:23;;;;;;;6.65;4.00;;;19.70;99.90;;;;;;5079358;28;20040;-74
2023/08/17 12:37:49;;;;;;;6.55;4.40;;;19.70;99.90;;;;;;5063357;28;20383;-74
2023/08/17 12:40:15;;;;;;;7.07;3.60;;;19.70;99.90;;;;;;5078159;28;20778;-74
2023/08/17 12:42:41;;;;;;;6.60;4.05;;;19.80;99.90;;;;;;5077417;28;20048;-74
2023/08/17 12:45:07;;;;;;;6.35;4.50;;;19.70;99.90;;;;;;5081642;28;20088;-73
2023/08/17 12:47:33;;;;;;;6.55;4.32;;;19.70;99.90;;;;;;5063696;28;20526;-73
2023/08/17 12:50:00;;;;;;;8.45;4.80;;;19.70;99.90;;;;;;5080213;28;20126;-73